Time;durP1;ratioP1;P1;durP2;ratioP2;P2;SDS_P1;SDS_P2;PMS_P1;PMS_P2;Temp;Humidity;BMP_temperature;BMP_pressure;BME280_temperature;BME280_humidity;BME280_pressure;Samples;Min_cycle;Max_cycle;Signal;HPM_P1;HPM_P2
2021/05/15 00:00:06;;;;;;;5.07;2.50;;;;;;;;;;5138426;28;20417;-56
2021/05/15 00:02:34;;;;;;;4.57;2.30;;;;;;;;;;5149214;27;20442;-56
2021/05/15 00:05:10;;;;;;;5.97;2.10;;;;;;;;;;5154980;27;20484;-57
2021/05/15 00:07:39;;;;;;;2.80;1.57;;;;;;;;;;5140717;27;20529;-57
2021/05/15 00:10:07;;;;;;;5.10;1.97;;;;;;;;;;5135714;28;20486;-57
2021/05/15 00:12:53;;;;;;;4.93;3.10;;;;;;;;;;5133355;28;20465;-59
2021/05/15 00:15:20;;;;;;;4.53;2.37;;;;;;;;;;5130087;28;20463;-53
2021/05/15 00:17:48;;;;;;;3.97;2.50;;;;;;;;;;5130436;28;20496;-50
2021/05/15 00:20:16;;;;;;;5.17;2.57;;;;;;;;;;5137153;28;20442;-48
2021/05/15 00:22:44;;;;;;;5.20;1.97;;;;;;;;;;5118482;28;20462;-61
2021/05/15 00:25:11;;;;;;;2.83;1.63;;;;;;;;;;5126423;28;20475;-58
2021/05/15 00:27:38;;;;;;;9.40;2.50;;;;;;;;;;5118390;28;20443;-52
2021/05/15 00:30:05;;;;;;;3.93;2.20;;;;;;;;;;5128760;28;20642;-55
2021/05/15 00:32:34;;;;;;;6.90;2.33;;;;;;;;;;5138427;28;20446;-56
2021/05/15 00:35:02;;;;;;;5.40;3.30;;;;;;;;;;5137540;28;20469;-53
2021/05/15 00:37:32;;;;;;;4.03;2.30;;;;;;;;;;5135465;28;20446;-55
2021/05/15 00:40:33;;;;;;;7.43;2.27;;;;;;;;;;5131065;28;20480;-51
2021/05/15 00:43:01;;;;;;;5.47;2.30;;;;;;;;;;5146556;27;20579;-61
2021/05/15 00:45:27;;;;;;;7.63;2.30;;;;;;;;;;5156803;27;20514;-53
2021/05/15 00:47:54;;;;;;;3.13;1.83;;;;;;;;;;5145651;27;20494;-54
2021/05/15 00:50:22;;;;;;;4.57;2.17;;;;;;;;;;5157929;27;20457;-57
2021/05/15 00:53:16;;;;;;;6.40;2.27;;;;;;;;;;5148300;27;20446;-55
2021/05/15 00:55:43;;;;;;;5.03;2.50;;;;;;;;;;5137482;28;20450;-54
2021/05/15 00:58:11;;;;;;;6.47;2.00;;;;;;;;;;5154690;27;20462;-55
2021/05/15 01:01:02;;;;;;;4.87;2.87;;;;;;;;;;5157663;27;20492;-57
2021/05/15 01:03:32;;;;;;;8.90;5.57;;;;;;;;;;5147791;27;20465;-52
2021/05/15 01:06:04;;;;;;;8.87;5.77;;;;;;;;;;5136799;28;20462;-52
2021/05/15 01:08:31;;;;;;;8.33;4.27;;;;;;;;;;5152783;27;20457;-53
2021/05/15 01:10:58;;;;;;;11.97;3.80;;;;;;;;;;5158037;27;20426;-52
2021/05/15 01:13:31;;;;;;;8.43;3.77;;;;;;;;;;5140079;27;20443;-58
2021/05/15 01:15:58;;;;;;;6.93;4.90;;;;;;;;;;5149815;27;20551;-56
2021/05/15 01:18:25;;;;;;;10.23;6.40;;;;;;;;;;5140751;27;20458;-55
2021/05/15 01:23:57;;;;;;;13.30;9.23;;;;;;;;;;5156202;27;20503;-59
2021/05/15 01:26:25;;;;;;;8.60;4.50;;;;;;;;;;5156995;27;20461;-57
2021/05/15 01:28:52;;;;;;;9.83;5.00;;;;;;;;;;5157961;27;20457;-52
2021/05/15 01:31:20;;;;;;;9.33;3.80;;;;;;;;;;5157234;27;20433;-55
2021/05/15 01:33:47;;;;;;;11.43;6.70;;;;;;;;;;5158313;27;20540;-56
2021/05/15 01:36:14;;;;;;;7.37;3.83;;;;;;;;;;5156392;27;20468;-57
2021/05/15 01:38:41;;;;;;;3.40;1.90;;;;;;;;;;5157434;27;20448;-54
2021/05/15 01:41:24;;;;;;;8.13;5.67;;;;;;;;;;5148244;27;20466;-56
2021/05/15 01:43:51;;;;;;;5.50;1.93;;;;;;;;;;5149374;27;20481;-52
2021/05/15 01:46:18;;;;;;;4.10;2.13;;;;;;;;;;5157306;27;20453;-54
2021/05/15 01:48:50;;;;;;;2.70;1.70;;;;;;;;;;5156732;27;20444;-54
2021/05/15 01:51:17;;;;;;;4.00;1.97;;;;;;;;;;5136443;28;20454;-56
2021/05/15 01:53:46;;;;;;;3.97;2.03;;;;;;;;;;5149796;27;20475;-51
2021/05/15 01:56:29;;;;;;;3.50;1.73;;;;;;;;;;5136656;28;20709;-57
2021/05/15 01:58:56;;;;;;;6.90;1.60;;;;;;;;;;5144194;27;20452;-52
2021/05/15 02:01:24;;;;;;;4.10;2.00;;;;;;;;;;5157138;28;20444;-54
2021/05/15 02:03:52;;;;;;;5.50;2.07;;;;;;;;;;5152359;27;20501;-58
2021/05/15 02:06:19;;;;;;;5.03;2.30;;;;;;;;;;5136456;28;20427;-57
2021/05/15 02:08:48;;;;;;;3.90;1.60;;;;;;;;;;5149784;28;20441;-55
2021/05/15 02:11:16;;;;;;;3.17;1.90;;;;;;;;;;5156869;28;20461;-58
2021/05/15 02:13:44;;;;;;;4.60;2.17;;;;;;;;;;5156020;28;20465;-54
2021/05/15 02:16:18;;;;;;;5.90;2.00;;;;;;;;;;5157222;28;20509;-57
2021/05/15 02:18:47;;;;;;;6.27;1.83;;;;;;;;;;5154490;28;20488;-52
2021/05/15 02:21:14;;;;;;;4.57;2.73;;;;;;;;;;5157321;28;20516;-57
2021/05/15 02:23:52;;;;;;;5.87;4.07;;;;;;;;;;5142077;27;20493;-50
2021/05/15 02:26:19;;;;;;;4.23;2.10;;;;;;;;;;5139308;28;20465;-56
2021/05/15 02:28:47;;;;;;;3.30;1.70;;;;;;;;;;5156454;28;20456;-54
2021/05/15 02:34:18;;;;;;;6.97;3.37;;;;;;;;;;5136740;28;20511;-56
2021/05/15 02:36:45;;;;;;;2.60;1.50;;;;;;;;;;5143237;28;20509;-55
2021/05/15 02:39:34;;;;;;;3.57;1.80;;;;;;;;;;5157002;28;20464;-52
2021/05/15 02:42:01;;;;;;;7.20;2.30;;;;;;;;;;5154156;28;20489;-55
2021/05/15 02:44:29;;;;;;;6.30;2.63;;;;;;;;;;5156959;28;20473;-57
2021/05/15 02:47:19;;;;;;;5.07;2.40;;;;;;;;;;5154665;28;20449;-54
2021/05/15 02:49:46;;;;;;;3.40;1.80;;;;;;;;;;5151588;28;20470;-59
2021/05/15 02:52:13;;;;;;;9.23;2.10;;;;;;;;;;5147508;28;20450;-58
2021/05/15 02:54:41;;;;;;;8.70;2.10;;;;;;;;;;5138357;28;20453;-50
2021/05/15 02:57:08;;;;;;;4.50;2.40;;;;;;;;;;5135846;28;20455;-53
2021/05/15 02:59:35;;;;;;;3.33;1.60;;;;;;;;;;5136486;28;20470;-52
2021/05/15 03:02:17;;;;;;;3.53;1.80;;;;;;;;;;5136542;28;20426;-55
2021/05/15 03:04:44;;;;;;;3.10;1.93;;;;;;;;;;5144457;27;20474;-58
2021/05/15 03:07:10;;;;;;;7.53;2.00;;;;;;;;;;5155898;28;20459;-58
2021/05/15 03:09:47;;;;;;;3.00;1.53;;;;;;;;;;5150877;28;20650;-55
2021/05/15 03:12:14;;;;;;;4.00;2.50;;;;;;;;;;5151216;28;20530;-58
2021/05/15 03:14:46;;;;;;;2.80;1.70;;;;;;;;;;5149219;27;20464;-53
2021/05/15 03:17:37;;;;;;;3.50;1.80;;;;;;;;;;5157197;27;20461;-56
2021/05/15 03:20:05;;;;;;;7.37;2.27;;;;;;;;;;5139201;27;20442;-50
2021/05/15 03:22:32;;;;;;;3.80;1.97;;;;;;;;;;5144720;27;20494;-58
2021/05/15 03:25:01;;;;;;;4.17;2.47;;;;;;;;;;5160422;27;20497;-56
2021/05/15 03:27:27;;;;;;;3.97;1.90;;;;;;;;;;5150887;27;20442;-57
2021/05/15 03:29:55;;;;;;;3.27;2.20;;;;;;;;;;5139466;27;20455;-53
2021/05/15 03:35:26;;;;;;;3.40;1.70;;;;;;;;;;5153369;27;20420;-54
2021/05/15 03:37:53;;;;;;;8.93;2.00;;;;;;;;;;5159045;27;20468;-58
2021/05/15 03:40:31;;;;;;;3.73;2.53;;;;;;;;;;5143679;27;20443;-58
2021/05/15 03:42:58;;;;;;;3.73;1.80;;;;;;;;;;5154740;27;20481;-51
2021/05/15 03:45:25;;;;;;;3.90;1.93;;;;;;;;;;5149778;27;20493;-56
2021/05/15 03:47:52;;;;;;;3.90;2.10;;;;;;;;;;5157603;27;20461;-52
2021/05/15 03:50:21;;;;;;;3.53;2.07;;;;;;;;;;5143843;27;20467;-51
2021/05/15 03:53:15;;;;;;;3.60;1.77;;;;;;;;;;5154326;27;20454;-56
2021/05/15 03:55:42;;;;;;;3.40;1.77;;;;;;;;;;5150901;27;20457;-54
2021/05/15 03:58:09;;;;;;;3.87;2.00;;;;;;;;;;5148116;27;20474;-51
2021/05/15 04:01:00;;;;;;;5.93;3.90;;;;;;;;;;5151868;27;20449;-55
2021/05/15 04:03:28;;;;;;;3.80;2.53;;;;;;;;;;5159664;27;20488;-56
2021/05/15 04:05:55;;;;;;;7.13;3.20;;;;;;;;;;5156579;27;20465;-52
2021/05/15 04:08:22;;;;;;;6.70;5.10;;;;;;;;;;5138605;28;20434;-52
2021/05/15 04:10:49;;;;;;;4.60;2.77;;;;;;;;;;5158068;27;20492;-54
2021/05/15 04:13:23;;;;;;;4.63;3.37;;;;;;;;;;5158436;27;20457;-55
2021/05/15 04:15:56;;;;;;;7.10;3.17;;;;;;;;;;5155092;27;20505;-57
2021/05/15 04:18:57;;;;;;;3.93;2.70;;;;;;;;;;5144741;27;20464;-58
2021/05/15 04:21:25;;;;;;;4.23;2.50;;;;;;;;;;5151709;27;22135;-61
2021/05/15 04:23:52;;;;;;;5.90;4.43;;;;;;;;;;5157571;27;20690;-58
2021/05/15 04:26:26;;;;;;;4.50;3.13;;;;;;;;;;5158827;27;20442;-50
2021/05/15 04:28:53;;;;;;;8.53;2.63;;;;;;;;;;5152930;27;20448;-60
2021/05/15 04:31:20;;;;;;;7.33;3.73;;;;;;;;;;5158082;27;20462;-55
2021/05/15 04:33:47;;;;;;;3.93;2.70;;;;;;;;;;5157076;27;20454;-53
2021/05/15 04:36:14;;;;;;;4.30;2.77;;;;;;;;;;5158606;27;20473;-55
2021/05/15 04:38:41;;;;;;;4.43;2.50;;;;;;;;;;5156754;27;20457;-52
2021/05/15 04:41:13;;;;;;;5.20;2.80;;;;;;;;;;5157358;27;20442;-59
2021/05/15 04:43:40;;;;;;;6.13;3.03;;;;;;;;;;5139613;27;20496;-52
2021/05/15 04:46:08;;;;;;;5.30;2.40;;;;;;;;;;5149649;27;20454;-54
2021/05/15 04:48:44;;;;;;;4.97;2.63;;;;;;;;;;5138398;27;20500;-53
2021/05/15 04:51:16;;;;;;;3.93;2.60;;;;;;;;;;5132291;27;20457;-57
2021/05/15 04:53:44;;;;;;;4.07;2.40;;;;;;;;;;5158079;27;20528;-54
2021/05/15 04:56:36;;;;;;;3.80;2.50;;;;;;;;;;5156188;27;20454;-54
2021/05/15 04:59:04;;;;;;;3.27;2.53;;;;;;;;;;5158403;27;20500;-52
2021/05/15 05:01:31;;;;;;;5.23;2.73;;;;;;;;;;5148335;27;20473;-57
2021/05/15 05:04:03;;;;;;;6.73;2.90;;;;;;;;;;5142320;27;20486;-53
2021/05/15 05:06:29;;;;;;;3.03;1.80;;;;;;;;;;5147570;27;20461;-52
2021/05/15 05:08:58;;;;;;;3.80;2.23;;;;;;;;;;5149232;27;20446;-58
2021/05/15 05:11:28;;;;;;;4.07;2.33;;;;;;;;;;5147339;27;20457;-51
2021/05/15 05:13:56;;;;;;;4.00;2.50;;;;;;;;;;5151621;27;20430;-52
2021/05/15 05:16:23;;;;;;;7.23;2.80;;;;;;;;;;5151939;27;20488;-54
2021/05/15 05:18:52;;;;;;;5.13;3.07;;;;;;;;;;5143020;27;20486;-55
2021/05/15 05:21:19;;;;;;;4.00;1.87;;;;;;;;;;5138639;27;20496;-57
2021/05/15 05:23:45;;;;;;;6.23;2.87;;;;;;;;;;5142609;27;20474;-58
2021/05/15 05:26:13;;;;;;;2.43;1.63;;;;;;;;;;5139142;27;20911;-56
2021/05/15 05:28:42;;;;;;;3.00;2.00;;;;;;;;;;5144938;27;20469;-54
2021/05/15 05:31:10;;;;;;;3.73;2.50;;;;;;;;;;5151863;27;20501;-56
2021/05/15 05:33:40;;;;;;;5.70;4.07;;;;;;;;;;5148896;27;20450;-54
2021/05/15 05:36:07;;;;;;;5.73;2.40;;;;;;;;;;5155886;27;20453;-59
2021/05/15 05:38:33;;;;;;;6.63;1.97;;;;;;;;;;5138864;27;20462;-55
2021/05/15 05:41:16;;;;;;;7.23;2.50;;;;;;;;;;5149319;27;20446;-54
2021/05/15 05:43:45;;;;;;;3.40;1.73;;;;;;;;;;5134408;28;20474;-54
2021/05/15 05:46:13;;;;;;;6.77;2.00;;;;;;;;;;5131870;28;20442;-55
2021/05/15 05:48:46;;;;;;;3.83;2.33;;;;;;;;;;5134545;28;20434;-57
2021/05/15 05:51:13;;;;;;;3.73;2.20;;;;;;;;;;5133623;28;20458;-59
2021/05/15 05:53:40;;;;;;;3.47;2.23;;;;;;;;;;5128498;28;20540;-56
2021/05/15 05:56:26;;;;;;;4.53;2.37;;;;;;;;;;5131421;28;20447;-60
2021/05/15 05:58:55;;;;;;;4.00;2.40;;;;;;;;;;5125724;27;20515;-56
2021/05/15 06:01:22;;;;;;;6.50;3.33;;;;;;;;;;5155489;27;20480;-54
2021/05/15 06:03:50;;;;;;;3.23;1.73;;;;;;;;;;5135296;28;20461;-57
2021/05/15 06:06:17;;;;;;;5.23;2.37;;;;;;;;;;5145297;28;20480;-58
2021/05/15 06:08:44;;;;;;;3.87;2.47;;;;;;;;;;5149881;28;20458;-57
2021/05/15 06:11:11;;;;;;;4.60;2.20;;;;;;;;;;5150166;28;20527;-54
2021/05/15 06:13:38;;;;;;;3.83;2.63;;;;;;;;;;5155874;28;20454;-54
2021/05/15 06:16:13;;;;;;;3.83;2.80;;;;;;;;;;5143626;28;20446;-61
2021/05/15 06:18:39;;;;;;;4.47;2.60;;;;;;;;;;5136365;28;20423;-57
2021/05/15 06:21:06;;;;;;;4.60;3.00;;;;;;;;;;5155161;28;20457;-56
2021/05/15 06:23:51;;;;;;;5.50;2.87;;;;;;;;;;5153585;28;20445;-56
2021/05/15 06:26:18;;;;;;;3.93;2.80;;;;;;;;;;5136070;28;20449;-56
2021/05/15 06:28:46;;;;;;;3.40;2.20;;;;;;;;;;5145311;28;20450;-56
2021/05/15 06:31:21;;;;;;;3.10;1.90;;;;;;;;;;5155580;28;20548;-57
2021/05/15 06:34:03;;;;;;;4.00;1.87;;;;;;;;;;5139708;28;20444;-52
2021/05/15 06:36:32;;;;;;;4.37;2.33;;;;;;;;;;5135509;27;20512;-53
2021/05/15 06:38:59;;;;;;;3.43;2.33;;;;;;;;;;5146301;28;20472;-55
2021/05/15 06:41:26;;;;;;;4.20;2.30;;;;;;;;;;5155826;28;20433;-57
2021/05/15 06:43:56;;;;;;;2.77;1.73;;;;;;;;;;5151704;28;20469;-55
2021/05/15 06:46:23;;;;;;;3.03;2.00;;;;;;;;;;5155309;28;20475;-56
2021/05/15 06:48:53;;;;;;;4.57;2.73;;;;;;;;;;5139046;28;20459;-55
2021/05/15 06:51:19;;;;;;;3.13;2.03;;;;;;;;;;5151041;27;20514;-59
2021/05/15 06:53:46;;;;;;;2.70;1.70;;;;;;;;;;5156750;27;20452;-51
2021/05/15 06:56:14;;;;;;;3.90;2.13;;;;;;;;;;5158063;27;20433;-55
2021/05/15 06:58:45;;;;;;;4.97;2.37;;;;;;;;;;5136423;27;20511;-58
2021/05/15 07:01:23;;;;;;;4.30;2.50;;;;;;;;;;5135022;28;20451;-56
2021/05/15 07:03:50;;;;;;;5.97;2.50;;;;;;;;;;5119395;28;20526;-53
2021/05/15 07:06:17;;;;;;;3.63;2.30;;;;;;;;;;5127125;28;20477;-56
2021/05/15 07:08:51;;;;;;;2.93;1.80;;;;;;;;;;5128880;28;20447;-55
2021/05/15 07:11:22;;;;;;;3.67;2.17;;;;;;;;;;5127874;28;20463;-54
2021/05/15 07:13:49;;;;;;;3.87;2.33;;;;;;;;;;5118034;28;20514;-56
2021/05/15 07:16:15;;;;;;;4.77;3.30;;;;;;;;;;5129918;28;20454;-58
2021/05/15 07:18:42;;;;;;;4.23;2.73;;;;;;;;;;5139026;28;20450;-55
2021/05/15 07:21:10;;;;;;;4.17;2.90;;;;;;;;;;5135946;28;20462;-55
2021/05/15 07:24:13;;;;;;;4.10;2.63;;;;;;;;;;5138792;28;20450;-55
2021/05/15 07:26:39;;;;;;;6.43;3.00;;;;;;;;;;5134612;28;20473;-53
2021/05/15 07:29:06;;;;;;;4.30;2.57;;;;;;;;;;5137948;28;20455;-59
2021/05/15 07:31:35;;;;;;;8.33;3.30;;;;;;;;;;5117909;28;20451;-58
2021/05/15 07:34:02;;;;;;;5.13;2.77;;;;;;;;;;5119103;28;20454;-56
2021/05/15 07:36:30;;;;;;;4.03;2.80;;;;;;;;;;5129111;28;20521;-53
2021/05/15 07:39:14;;;;;;;4.40;2.33;;;;;;;;;;5125915;28;20432;-56
2021/05/15 07:41:41;;;;;;;5.70;2.67;;;;;;;;;;5118409;28;20469;-57
2021/05/15 07:44:09;;;;;;;4.83;2.57;;;;;;;;;;5119121;28;20491;-55
2021/05/15 07:46:36;;;;;;;3.67;2.30;;;;;;;;;;5099939;28;20455;-56
2021/05/15 07:49:03;;;;;;;2.97;2.07;;;;;;;;;;5120050;28;20455;-60
2021/05/15 07:51:35;;;;;;;6.53;2.30;;;;;;;;;;5131635;28;20496;-53
2021/05/15 07:54:03;;;;;;;5.30;2.73;;;;;;;;;;5132336;28;20462;-57
2021/05/15 07:56:34;;;;;;;3.50;2.33;;;;;;;;;;5120008;28;20493;-56
2021/05/15 07:59:01;;;;;;;4.60;2.80;;;;;;;;;;5136576;27;20479;-56
2021/05/15 08:01:28;;;;;;;3.90;2.73;;;;;;;;;;5123877;28;20538;-53
2021/05/15 08:04:29;;;;;;;3.90;2.50;;;;;;;;;;5135407;28;20491;-54
2021/05/15 08:06:57;;;;;;;4.60;3.20;;;;;;;;;;5127939;28;20454;-57
2021/05/15 08:09:24;;;;;;;4.47;2.73;;;;;;;;;;5126408;28;20504;-58
2021/05/15 08:11:54;;;;;;;4.10;2.53;;;;;;;;;;5138342;28;20442;-57
2021/05/15 08:14:21;;;;;;;5.60;3.33;;;;;;;;;;5138844;28;20904;-55
2021/05/15 08:16:48;;;;;;;4.43;2.87;;;;;;;;;;5128363;28;20480;-53
2021/05/15 08:19:34;;;;;;;4.07;2.80;;;;;;;;;;5117943;28;20463;-55
2021/05/15 08:22:05;;;;;;;5.93;3.67;;;;;;;;;;5127101;28;20821;-57
2021/05/15 08:24:34;;;;;;;5.70;3.40;;;;;;;;;;5122197;28;20477;-56
2021/05/15 08:27:17;;;;;;;6.23;3.23;;;;;;;;;;5137218;28;20469;-55
2021/05/15 08:29:52;;;;;;;5.10;2.63;;;;;;;;;;5132912;28;20455;-59
2021/05/15 08:32:20;;;;;;;9.13;5.00;;;;;;;;;;5122028;28;20445;-56
2021/05/15 08:35:16;;;;;;;5.30;2.73;;;;;;;;;;5134598;28;20486;-55
2021/05/15 08:37:48;;;;;;;5.90;3.80;;;;;;;;;;5115830;28;20506;-58
2021/05/15 08:40:17;;;;;;;4.50;3.20;;;;;;;;;;5111859;28;20487;-53
2021/05/15 08:42:47;;;;;;;6.73;2.80;;;;;;;;;;5100561;28;20436;-59
2021/05/15 08:45:15;;;;;;;6.43;3.03;;;;;;;;;;5113442;28;20494;-54
2021/05/15 08:47:42;;;;;;;6.50;3.30;;;;;;;;;;5117008;28;20439;-54
2021/05/15 08:50:34;;;;;;;7.10;3.87;;;;;;;;;;5105486;28;20459;-56
2021/05/15 08:53:03;;;;;;;7.83;4.00;;;;;;;;;;5104520;28;20459;-60
2021/05/15 08:55:30;;;;;;;6.60;3.27;;;;;;;;;;5107561;28;20532;-55
2021/05/15 08:58:04;;;;;;;3.60;1.93;;;;;;;;;;5115687;28;20451;-60
2021/05/15 09:00:32;;;;;;;3.63;1.60;;;;;;;;;;5116304;28;20759;-55
2021/05/15 09:03:02;;;;;;;5.27;2.30;;;;;;;;;;5114938;28;20436;-60
2021/05/15 09:05:46;;;;;;;5.40;3.10;;;;;;;;;;5116475;28;20514;-52
2021/05/15 09:08:13;;;;;;;6.40;3.80;;;;;;;;;;5107846;28;20449;-53
2021/05/15 09:10:43;;;;;;;4.80;2.83;;;;;;;;;;5096323;28;20500;-54
2021/05/15 09:13:12;;;;;;;5.57;2.40;;;;;;;;;;5112392;28;20471;-55
2021/05/15 09:15:58;;;;;;;6.43;3.07;;;;;;;;;;5113771;28;20549;-55
2021/05/15 09:18:39;;;;;;;5.87;3.03;;;;;;;;;;5108432;28;20441;-55
2021/05/15 09:21:17;;;;;;;4.80;3.03;;;;;;;;;;5107405;28;20468;-53
2021/05/15 09:23:46;;;;;;;5.27;2.77;;;;;;;;;;5113131;28;20435;-54
2021/05/15 09:26:15;;;;;;;3.67;2.17;;;;;;;;;;5105939;28;20448;-58
2021/05/15 09:28:44;;;;;;;4.10;3.10;;;;;;;;;;5095541;28;20519;-60
2021/05/15 09:31:16;;;;;;;5.37;2.60;;;;;;;;;;5108125;28;20440;-56
2021/05/15 09:33:46;;;;;;;6.97;5.43;;;;;;;;;;5111583;28;20507;-53
2021/05/15 09:36:22;;;;;;;5.73;2.63;;;;;;;;;;5105940;28;20452;-53
2021/05/15 09:39:04;;;;;;;3.60;1.83;;;;;;;;;;5109545;28;20440;-53
2021/05/15 09:44:41;;;;;;;6.57;2.90;;;;;;;;;;5107033;28;20534;-58
2021/05/15 09:47:08;;;;;;;6.17;2.00;;;;;;;;;;5105294;28;20460;-54
2021/05/15 09:49:37;;;;;;;3.57;2.20;;;;;;;;;;5106369;28;20521;-54
2021/05/15 09:52:05;;;;;;;4.27;2.20;;;;;;;;;;5096934;28;20452;-51
2021/05/15 09:54:33;;;;;;;2.87;1.60;;;;;;;;;;5115797;28;20463;-54
2021/05/15 09:57:21;;;;;;;3.80;1.77;;;;;;;;;;5098212;28;20435;-55
2021/05/15 09:59:49;;;;;;;4.33;1.90;;;;;;;;;;5112462;28;20452;-55
2021/05/15 10:02:26;;;;;;;5.23;2.53;;;;;;;;;;5115428;28;20474;-56
2021/05/15 10:04:53;;;;;;;6.17;2.27;;;;;;;;;;5094737;28;20494;-56
2021/05/15 10:07:32;;;;;;;4.67;2.97;;;;;;;;;;5108956;28;20451;-55
2021/05/15 10:10:05;;;;;;;7.87;3.83;;;;;;;;;;5107265;28;20467;-57
2021/05/15 10:12:33;;;;;;;5.90;3.40;;;;;;;;;;5113239;28;20685;-59
2021/05/15 10:15:00;;;;;;;5.10;2.80;;;;;;;;;;5116235;28;20470;-56
2021/05/15 10:17:46;;;;;;;5.60;3.00;;;;;;;;;;5114533;28;20479;-56
2021/05/15 10:20:14;;;;;;;8.40;3.23;;;;;;;;;;5111031;28;20439;-57
2021/05/15 10:22:42;;;;;;;8.50;4.80;;;;;;;;;;5115037;28;20479;-53
2021/05/15 10:25:45;;;;;;;11.07;5.73;;;;;;;;;;5116715;28;20482;-54
2021/05/15 10:28:15;;;;;;;5.73;2.57;;;;;;;;;;5126664;27;20484;-51
2021/05/15 10:30:42;;;;;;;3.30;1.63;;;;;;;;;;5156173;27;20539;-48
2021/05/15 10:33:12;;;;;;;4.73;2.40;;;;;;;;;;5160131;27;20441;-55
2021/05/15 10:35:44;;;;;;;3.87;2.27;;;;;;;;;;5154115;27;20445;-58
2021/05/15 10:38:13;;;;;;;3.70;2.17;;;;;;;;;;5139168;27;20450;-51
2021/05/15 10:43:35;;;;;;;5.20;3.07;;;;;;;;;;5155812;27;20448;-59
2021/05/15 10:46:17;;;;;;;4.90;2.70;;;;;;;;;;5159300;27;20485;-51
2021/05/15 10:48:55;;;;;;;5.03;2.60;;;;;;;;;;5140056;27;20492;-59
2021/05/15 10:51:31;;;;;;;3.87;2.50;;;;;;;;;;5158747;27;20449;-53
2021/05/15 10:53:59;;;;;;;3.60;2.10;;;;;;;;;;5159181;27;20448;-53
2021/05/15 10:56:41;;;;;;;6.03;2.23;;;;;;;;;;5145189;27;20457;-56
2021/05/15 10:59:16;;;;;;;3.23;1.63;;;;;;;;;;5142551;27;20470;-55
2021/05/15 11:01:47;;;;;;;5.00;2.20;;;;;;;;;;5143217;27;20452;-55
2021/05/15 11:04:42;;;;;;;3.70;1.83;;;;;;;;;;5152405;27;20473;-56
2021/05/15 11:07:10;;;;;;;5.40;2.20;;;;;;;;;;5155589;27;20454;-57
2021/05/15 11:09:37;;;;;;;3.80;1.60;;;;;;;;;;5157217;27;20509;-58
2021/05/15 11:12:34;;;;;;;3.80;2.37;;;;;;;;;;5152918;27;20448;-59
2021/05/15 11:15:02;;;;;;;4.17;2.10;;;;;;;;;;5145906;27;20456;-51
2021/05/15 11:17:31;;;;;;;4.93;2.13;;;;;;;;;;5152267;27;20438;-58
2021/05/15 11:20:08;;;;;;;6.43;3.57;;;;;;;;;;5143744;27;20454;-58
2021/05/15 11:22:37;;;;;;;3.30;1.40;;;;;;;;;;5106937;28;20454;-59
2021/05/15 11:25:05;;;;;;;6.17;2.33;;;;;;;;;;5111067;28;20479;-60
2021/05/15 11:27:46;;;;;;;5.50;2.43;;;;;;;;;;5112205;28;20551;-58
2021/05/15 11:30:17;;;;;;;3.03;1.93;;;;;;;;;;5097934;28;20510;-57
2021/05/15 11:32:58;;;;;;;3.70;1.87;;;;;;;;;;5099465;28;20476;-59
2021/05/15 11:35:25;;;;;;;3.20;1.80;;;;;;;;;;5113208;28;20451;-57
2021/05/15 11:38:03;;;;;;;3.83;1.53;;;;;;;;;;5097812;28;20459;-56
2021/05/15 11:40:31;;;;;;;3.07;1.07;;;;;;;;;;5101998;28;20467;-56
2021/05/15 11:42:58;;;;;;;4.00;1.47;;;;;;;;;;5117303;28;20633;-58
2021/05/15 11:45:26;;;;;;;2.90;1.70;;;;;;;;;;5113090;28;20476;-53
2021/05/15 11:48:04;;;;;;;2.83;1.10;;;;;;;;;;5117650;28;20459;-60
2021/05/15 11:50:32;;;;;;;2.80;1.27;;;;;;;;;;5112032;28;20439;-53
2021/05/15 11:53:02;;;;;;;2.23;1.10;;;;;;;;;;5113868;28;20512;-58
2021/05/15 11:55:56;;;;;;;2.90;1.23;;;;;;;;;;5101059;28;20578;-54
2021/05/15 11:58:26;;;;;;;3.03;1.50;;;;;;;;;;5114202;28;20453;-60
2021/05/15 12:01:31;;;;;;;3.07;1.57;;;;;;;;;;5102532;28;20448;-54
2021/05/15 12:04:06;;;;;;;3.60;1.20;;;;;;;;;;5101863;28;20485;-56
2021/05/15 12:06:34;;;;;;;2.60;1.10;;;;;;;;;;5117378;28;20443;-56
2021/05/15 12:09:10;;;;;;;2.50;1.10;;;;;;;;;;5108542;28;20452;-54
2021/05/15 12:11:38;;;;;;;2.90;1.10;;;;;;;;;;5097311;28;20451;-56
2021/05/15 12:14:13;;;;;;;2.47;1.00;;;;;;;;;;5098333;28;20441;-51
2021/05/15 12:16:40;;;;;;;3.13;1.23;;;;;;;;;;5112939;28;20490;-54
2021/05/15 12:19:18;;;;;;;3.93;1.20;;;;;;;;;;5137236;28;20434;-56
2021/05/15 12:22:05;;;;;;;4.17;1.30;;;;;;;;;;5137953;28;20736;-61
2021/05/15 12:27:19;;;;;;;4.40;2.63;;;;;;;;;;5134951;28;20464;-54
2021/05/15 12:29:47;;;;;;;3.50;1.40;;;;;;;;;;5137051;28;20439;-53
2021/05/15 12:32:31;;;;;;;4.37;1.20;;;;;;;;;;5132754;28;20458;-61
2021/05/15 12:35:11;;;;;;;2.40;1.10;;;;;;;;;;5136114;28;20454;-54
2021/05/15 12:37:39;;;;;;;3.90;1.20;;;;;;;;;;5141378;27;20496;-57
2021/05/15 12:40:08;;;;;;;2.67;1.10;;;;;;;;;;5137367;27;20652;-52
2021/05/15 12:42:55;;;;;;;4.30;1.10;;;;;;;;;;5145226;27;20492;-55
2021/05/15 12:45:22;;;;;;;5.40;2.03;;;;;;;;;;5134447;27;20551;-57
2021/05/15 12:47:51;;;;;;;4.70;2.10;;;;;;;;;;5131279;28;20504;-59
2021/05/15 12:50:27;;;;;;;3.30;1.23;;;;;;;;;;5131644;28;20463;-55
2021/05/15 12:53:04;;;;;;;3.77;1.50;;;;;;;;;;5116374;28;20455;-58
2021/05/15 12:55:49;;;;;;;2.90;1.63;;;;;;;;;;5123036;28;20488;-53
2021/05/15 12:58:26;;;;;;;8.57;2.10;;;;;;;;;;5130365;28;20496;-59
2021/05/15 13:01:07;;;;;;;3.90;1.90;;;;;;;;;;5133501;28;20462;-57
2021/05/15 13:03:36;;;;;;;4.63;2.53;;;;;;;;;;5127982;28;20473;-58
2021/05/15 13:06:12;;;;;;;4.20;1.00;;;;;;;;;;5135940;28;20490;-53
2021/05/15 13:08:40;;;;;;;6.17;1.63;;;;;;;;;;5135132;28;20442;-57
2021/05/15 13:11:11;;;;;;;4.83;1.30;;;;;;;;;;5132838;28;20450;-59
2021/05/15 13:13:38;;;;;;;4.63;1.57;;;;;;;;;;5135340;28;20462;-59
2021/05/15 13:16:05;;;;;;;4.30;1.60;;;;;;;;;;5116310;28;20453;-53
2021/05/15 13:18:32;;;;;;;6.10;1.53;;;;;;;;;;5130146;28;20466;-52
2021/05/15 13:21:00;;;;;;;3.63;1.50;;;;;;;;;;5115877;28;20507;-59
2021/05/15 13:23:28;;;;;;;8.20;3.60;;;;;;;;;;5125270;28;20444;-56
2021/05/15 13:25:57;;;;;;;4.50;2.00;;;;;;;;;;5128918;28;20535;-59
2021/05/15 13:28:58;;;;;;;6.83;1.50;;;;;;;;;;5135665;28;20442;-54
2021/05/15 13:31:26;;;;;;;3.60;1.40;;;;;;;;;;5133321;27;20531;-56
2021/05/15 13:33:55;;;;;;;5.43;1.60;;;;;;;;;;5155486;27;20446;-54
2021/05/15 13:36:22;;;;;;;5.40;2.20;;;;;;;;;;5138060;27;20476;-54
2021/05/15 13:38:56;;;;;;;5.60;1.77;;;;;;;;;;5136042;28;20485;-54
2021/05/15 13:41:33;;;;;;;3.67;1.70;;;;;;;;;;5136874;27;20564;-54
2021/05/15 13:44:11;;;;;;;7.13;2.27;;;;;;;;;;5156883;27;20433;-56
2021/05/15 13:46:47;;;;;;;6.30;2.30;;;;;;;;;;5141236;27;20463;-58
2021/05/15 13:49:23;;;;;;;4.77;1.97;;;;;;;;;;5135175;28;20458;-59
2021/05/15 13:51:50;;;;;;;6.30;3.17;;;;;;;;;;5141279;27;20441;-56
2021/05/15 13:54:18;;;;;;;5.27;3.20;;;;;;;;;;5155973;27;20461;-58
2021/05/15 13:56:48;;;;;;;6.83;3.07;;;;;;;;;;5155787;27;20460;-58
2021/05/15 13:59:19;;;;;;;3.53;1.90;;;;;;;;;;5153414;27;20442;-59
2021/05/15 14:01:59;;;;;;;6.30;1.80;;;;;;;;;;5147551;27;20490;-60
2021/05/15 14:04:29;;;;;;;6.33;3.40;;;;;;;;;;5135431;28;20505;-55
2021/05/15 14:07:24;;;;;;;4.07;2.37;;;;;;;;;;5130502;28;20490;-56
2021/05/15 14:09:52;;;;;;;5.00;2.00;;;;;;;;;;5131054;28;20458;-58
2021/05/15 14:12:20;;;;;;;3.27;1.67;;;;;;;;;;5132237;28;20447;-54
2021/05/15 14:15:08;;;;;;;3.33;1.63;;;;;;;;;;5122910;28;20526;-52
2021/05/15 14:17:35;;;;;;;3.80;1.53;;;;;;;;;;5115019;28;20455;-58
2021/05/15 14:20:03;;;;;;;4.03;1.63;;;;;;;;;;5129427;28;20451;-49
2021/05/15 14:23:12;;;;;;;5.60;2.13;;;;;;;;;;5130349;28;20470;-58
2021/05/15 14:25:46;;;;;;;4.30;1.70;;;;;;;;;;5121737;28;20482;-53
2021/05/15 14:28:16;;;;;;;4.40;1.33;;;;;;;;;;5129518;28;20444;-52
2021/05/15 14:30:49;;;;;;;3.47;2.00;;;;;;;;;;5125705;28;20447;-53
2021/05/15 14:33:41;;;;;;;7.60;2.30;;;;;;;;;;5132885;28;20474;-53
2021/05/15 14:36:29;;;;;;;4.40;2.77;;;;;;;;;;5120898;28;20454;-54
2021/05/15 14:38:55;;;;;;;2.97;1.23;;;;;;;;;;5132457;28;20488;-55
2021/05/15 14:41:22;;;;;;;2.70;1.47;;;;;;;;;;5135453;28;20500;-55
2021/05/15 14:43:55;;;;;;;3.63;1.53;;;;;;;;;;5134346;28;20466;-58
2021/05/15 14:46:23;;;;;;;3.57;1.10;;;;;;;;;;5113927;28;20544;-57
2021/05/15 14:49:04;;;;;;;3.37;1.27;;;;;;;;;;5123296;28;20485;-57
2021/05/15 14:51:43;;;;;;;2.50;1.07;;;;;;;;;;5134384;28;20426;-59
2021/05/15 14:54:12;;;;;;;3.43;1.40;;;;;;;;;;5123349;28;20446;-55
2021/05/15 14:56:41;;;;;;;2.77;1.33;;;;;;;;;;5131050;28;20458;-56
2021/05/15 15:02:13;;;;;;;3.77;1.80;;;;;;;;;;5117458;28;20482;-51
2021/05/15 15:04:39;;;;;;;2.57;1.17;;;;;;;;;;5126666;28;20462;-53
2021/05/15 15:07:07;;;;;;;2.70;1.20;;;;;;;;;;5134667;28;20457;-58
2021/05/15 15:09:35;;;;;;;5.47;1.60;;;;;;;;;;5134293;28;20485;-54
2021/05/15 15:12:35;;;;;;;5.97;1.73;;;;;;;;;;5128491;28;20452;-51
2021/05/15 15:15:03;;;;;;;2.60;1.23;;;;;;;;;;5130908;28;20475;-56
2021/05/15 15:17:32;;;;;;;4.90;2.00;;;;;;;;;;5137987;28;20446;-59
2021/05/15 15:20:00;;;;;;;3.13;1.57;;;;;;;;;;5138753;28;20453;-56
2021/05/15 15:22:28;;;;;;;4.67;2.10;;;;;;;;;;5138419;28;20474;-50
2021/05/15 15:25:15;;;;;;;7.10;2.97;;;;;;;;;;5138344;28;20530;-55
2021/05/15 15:27:47;;;;;;;2.73;1.13;;;;;;;;;;5129009;28;20471;-50
2021/05/15 15:30:28;;;;;;;3.37;1.67;;;;;;;;;;5132506;28;20557;-57
2021/05/15 15:33:05;;;;;;;2.77;1.20;;;;;;;;;;5137137;28;20466;-55